createdAt,value
2022-10-25T06:00:46.293Z,15.84
2022-10-25T06:02:49.267Z,16.12
2022-10-25T06:04:52.537Z,16.35
2022-10-25T06:06:55.601Z,16.50
2022-10-25T06:08:59.088Z,16.59
2022-10-25T06:11:03.306Z,16.70
2022-10-25T06:13:06.043Z,16.80
2022-10-25T06:15:10.429Z,16.88
2022-10-25T06:17:14.655Z,16.91
2022-10-25T06:19:17.385Z,16.98
2022-10-25T06:21:21.665Z,17.02
2022-10-25T06:23:24.851Z,17.04
2022-10-25T06:25:27.409Z,17.03
2022-10-25T06:27:29.955Z,17.03
2022-10-25T06:29:32.756Z,17.05
2022-10-25T06:31:36.079Z,17.05
2022-10-25T06:33:40.790Z,17.07
2022-10-25T06:35:43.710Z,17.10
2022-10-25T06:37:46.447Z,17.08
2022-10-25T06:39:49.155Z,17.11
2022-10-25T06:41:51.862Z,17.13
2022-10-25T06:43:55.267Z,17.16
2022-10-25T06:45:58.849Z,17.14
2022-10-25T06:48:01.957Z,17.16
2022-10-25T06:52:14.586Z,17.15
2022-10-25T06:54:19.608Z,17.16
2022-10-25T06:56:22.551Z,17.22
2022-10-25T06:58:26.364Z,17.23
2022-10-25T07:00:29.103Z,17.25
2022-10-25T07:02:32.630Z,17.25
2022-10-25T07:04:35.506Z,17.28
2022-10-25T07:06:40.273Z,17.31
2022-10-25T07:08:45.160Z,17.28
2022-10-25T07:10:54.411Z,17.24
2022-10-25T07:12:57.519Z,17.24
2022-10-25T07:15:00.625Z,17.24
2022-10-25T07:17:03.710Z,17.27
2022-10-25T07:19:07.469Z,17.26
2022-10-25T07:21:14.164Z,17.25
2022-10-25T07:23:18.764Z,17.31
2022-10-25T07:25:21.849Z,17.37
2022-10-25T07:27:24.633Z,17.42
2022-10-25T07:29:27.538Z,17.46
2022-10-25T07:31:33.361Z,17.46
2022-10-25T07:33:36.307Z,17.46
2022-10-25T07:35:46.907Z,17.46
2022-10-25T07:38:01.942Z,17.48
2022-10-25T07:40:08.684Z,17.49
2022-10-25T07:42:11.633Z,17.49
2022-10-25T07:44:17.467Z,17.46
2022-10-25T07:46:22.724Z,17.45
2022-10-25T07:48:25.635Z,17.40
2022-10-25T07:50:28.711Z,17.43
2022-10-25T07:52:31.478Z,17.46
2022-10-25T07:54:34.386Z,17.51
2022-10-25T07:56:38.739Z,17.55
2022-10-25T07:58:41.780Z,17.59
2022-10-25T08:00:44.646Z,17.61
2022-10-25T08:02:47.429Z,17.61
2022-10-25T08:04:53.590Z,17.64
2022-10-25T08:07:00.211Z,17.59
2022-10-25T08:09:14.220Z,17.62
2022-10-25T08:11:23.286Z,17.65
2022-10-25T08:13:27.603Z,17.66
2022-10-25T08:15:30.346Z,17.63
2022-10-25T08:17:33.227Z,17.66
2022-10-25T08:19:35.981Z,17.72
2022-10-25T08:21:39.049Z,17.74
2022-10-25T08:23:42.197Z,17.76
2022-10-25T08:25:45.077Z,17.81
2022-10-25T08:27:48.266Z,17.85
2022-10-25T08:29:52.476Z,17.88
2022-10-25T08:31:55.366Z,17.88
2022-10-25T08:33:58.309Z,17.88
2022-10-25T08:36:02.086Z,17.89
2022-10-25T08:38:06.163Z,17.92
2022-10-25T08:40:18.517Z,17.93
2022-10-25T08:42:25.690Z,17.89
2022-10-25T08:44:40.011Z,17.88
2022-10-25T08:46:54.304Z,17.90
2022-10-25T08:49:07.739Z,17.92
2022-10-25T08:51:26.008Z,17.92
2022-10-25T08:53:33.183Z,17.91
2022-10-25T08:55:44.666Z,17.90
2022-10-25T08:57:58.482Z,17.93
2022-10-25T09:00:07.375Z,17.91
2022-10-25T09:02:18.717Z,17.87
2022-10-25T09:04:22.502Z,17.90
2022-10-25T09:06:34.086Z,17.91
2022-10-25T09:08:50.081Z,17.90
2022-10-25T09:11:00.172Z,17.91
2022-10-25T09:13:14.616Z,17.97
2022-10-25T09:15:29.796Z,18.00
2022-10-25T09:17:38.016Z,17.98
2022-10-25T09:19:52.528Z,18.01
2022-10-25T09:22:01.263Z,18.03
2022-10-25T09:24:10.475Z,18.06
2022-10-25T09:26:22.937Z,18.06
2022-10-25T09:28:30.185Z,18.07
2022-10-25T09:30:39.070Z,18.09
2022-10-25T09:32:48.809Z,18.10
2022-10-25T09:34:52.374Z,18.12
2022-10-25T09:37:00.526Z,18.13
2022-10-25T09:39:07.183Z,18.14
2022-10-25T09:41:15.515Z,18.15
2022-10-25T09:43:24.201Z,18.16
2022-10-25T09:45:31.535Z,18.17
2022-10-25T09:47:41.808Z,18.16
2022-10-25T09:49:54.199Z,18.21
2022-10-25T09:52:04.518Z,18.24
2022-10-25T09:54:16.760Z,18.23
2022-10-25T09:56:19.574Z,18.25
2022-10-25T09:58:24.136Z,18.25
2022-10-25T10:00:27.284Z,18.25
2022-10-25T10:02:30.178Z,18.28
2022-10-25T10:04:37.170Z,18.27
2022-10-25T10:06:41.938Z,18.28
2022-10-25T10:08:50.581Z,18.28
2022-10-25T10:10:57.489Z,18.26
2022-10-25T10:13:06.130Z,18.26
2022-10-25T10:15:15.474Z,18.27
2022-10-25T10:17:23.016Z,18.29
2022-10-25T10:19:29.788Z,18.29
2022-10-25T10:21:33.643Z,18.30
2022-10-25T10:23:46.360Z,18.31
2022-10-25T10:25:49.343Z,18.31
2022-10-25T10:27:55.074Z,18.32
2022-10-25T10:30:01.089Z,18.34
2022-10-25T10:32:06.529Z,18.34
2022-10-25T10:34:24.604Z,18.34
2022-10-25T10:36:29.805Z,18.36
2022-10-25T10:38:35.665Z,18.37
2022-10-25T10:40:39.843Z,18.37
2022-10-25T10:42:42.790Z,18.38
2022-10-25T10:45:03.269Z,18.38
2022-10-25T10:47:13.294Z,18.37
2022-10-25T10:49:17.269Z,18.37
2022-10-25T10:51:42.894Z,18.38
2022-10-25T10:53:45.589Z,18.37
2022-10-25T10:55:51.256Z,18.38
2022-10-25T10:57:55.416Z,18.37
2022-10-25T10:59:58.995Z,18.38
2022-10-25T11:02:28.407Z,18.39
2022-10-25T11:04:31.371Z,18.42
2022-10-25T11:06:36.061Z,18.42
2022-10-25T11:08:38.801Z,18.42
2022-10-25T11:10:42.302Z,18.44
2022-10-25T11:12:46.626Z,18.46
2022-10-25T11:14:49.569Z,18.47
2022-10-25T11:17:00.240Z,18.49
2022-10-25T11:19:15.878Z,18.50
2022-10-25T11:21:35.720Z,18.50
2022-10-25T11:23:49.857Z,18.52
2022-10-25T11:25:58.906Z,18.52
2022-10-25T11:28:26.135Z,18.50
2022-10-25T11:30:35.901Z,18.50
2022-10-25T11:33:02.624Z,18.49
2022-10-25T11:35:10.837Z,18.49
2022-10-25T11:37:21.258Z,18.47
2022-10-25T11:39:36.115Z,18.47
2022-10-25T11:41:46.396Z,18.48
2022-10-25T11:44:03.253Z,18.50
2022-10-25T11:46:16.209Z,18.51
2022-10-25T11:48:46.777Z,18.52
2022-10-25T11:50:58.878Z,18.53
2022-10-25T11:53:25.323Z,18.54
2022-10-25T11:55:35.858Z,18.55
2022-10-25T11:57:47.980Z,18.57
2022-10-25T12:00:05.134Z,18.56
2022-10-25T12:02:35.882Z,18.58
2022-10-25T12:04:58.279Z,18.58
2022-10-25T12:07:07.782Z,18.57
2022-10-25T12:09:20.083Z,18.55
2022-10-25T12:11:27.554Z,18.57
2022-10-25T12:13:34.051Z,18.58
2022-10-25T12:15:40.870Z,18.60
2022-10-25T12:17:44.592Z,18.60
2022-10-25T12:19:51.408Z,18.61
2022-10-25T12:22:00.746Z,18.62
2022-10-25T12:24:05.640Z,18.63
2022-10-25T12:26:13.478Z,18.64
2022-10-25T12:28:24.401Z,18.63
2022-10-25T12:30:28.755Z,18.66
2022-10-25T12:32:39.891Z,18.64
2022-10-25T12:34:46.864Z,18.62
2022-10-25T12:36:53.183Z,18.62
2022-10-25T12:38:59.104Z,18.62
2022-10-25T12:41:08.720Z,18.63
2022-10-25T12:43:18.038Z,18.63
2022-10-25T12:45:57.455Z,18.66
2022-10-25T12:48:17.399Z,18.68
2022-10-25T12:50:36.801Z,18.67
2022-10-25T12:52:42.574Z,18.66
2022-10-25T12:55:16.799Z,18.67
2022-10-25T12:57:27.156Z,18.69
2022-10-25T12:59:44.847Z,18.69
2022-10-25T13:02:04.788Z,18.68
2022-10-25T13:04:33.001Z,18.67
2022-10-25T13:06:38.238Z,18.67
2022-10-25T13:08:42.599Z,18.68
2022-10-25T13:10:50.030Z,18.69
2022-10-25T13:13:04.496Z,18.70
2022-10-25T13:15:08.012Z,18.71
2022-10-25T13:17:48.101Z,18.71
2022-10-25T13:19:55.058Z,18.70
2022-10-25T13:22:14.063Z,18.70
2022-10-25T13:24:37.646Z,18.70
2022-10-25T13:27:16.633Z,18.72
2022-10-25T13:29:53.174Z,18.71
2022-10-25T13:32:10.257Z,18.71
2022-10-25T13:34:38.977Z,18.70
2022-10-25T13:36:51.470Z,18.70
2022-10-25T13:39:05.104Z,18.72
2022-10-25T13:41:17.276Z,18.74
2022-10-25T13:43:22.026Z,18.74
2022-10-25T13:45:33.945Z,18.76
2022-10-25T13:47:41.019Z,18.74
2022-10-25T13:49:45.101Z,18.76
2022-10-25T13:51:49.401Z,18.77
2022-10-25T13:53:54.143Z,18.77
2022-10-25T13:56:05.089Z,18.77
2022-10-25T13:58:45.622Z,18.79
2022-10-25T14:00:52.988Z,18.78
2022-10-25T14:03:22.210Z,18.73
2022-10-25T14:05:58.227Z,18.74
2022-10-25T14:08:20.187Z,18.77
2022-10-25T14:10:28.218Z,18.78
2022-10-25T14:12:33.518Z,18.79
2022-10-25T14:14:45.474Z,18.79
2022-10-25T14:17:08.326Z,18.79
2022-10-25T14:19:17.036Z,18.79
2022-10-25T14:21:21.127Z,18.81
2022-10-25T14:23:30.169Z,18.81
2022-10-25T14:25:37.017Z,18.81
2022-10-25T14:27:39.741Z,18.82
2022-10-25T14:29:44.001Z,18.81
2022-10-25T14:31:46.947Z,18.81
2022-10-25T14:33:54.392Z,18.80
2022-10-25T14:35:59.249Z,18.81
2022-10-25T14:38:03.772Z,18.82
2022-10-25T14:40:21.482Z,18.82
2022-10-25T14:42:24.504Z,18.85
2022-10-25T14:44:29.466Z,18.83
2022-10-25T14:46:34.046Z,18.84
2022-10-25T14:48:37.288Z,18.83
2022-10-25T14:50:40.235Z,18.83
2022-10-25T14:52:46.127Z,18.82
2022-10-25T14:54:55.744Z,18.82
2022-10-25T14:57:04.163Z,18.82
2022-10-25T14:59:18.069Z,18.83
2022-10-25T15:01:22.737Z,18.83
2022-10-25T15:03:27.290Z,18.83
2022-10-25T15:05:30.329Z,18.84
2022-10-25T15:07:37.343Z,18.84
2022-10-25T15:09:49.744Z,18.84
2022-10-25T15:12:18.192Z,18.85
2022-10-25T15:14:22.487Z,18.85
2022-10-25T15:16:33.520Z,18.85
2022-10-25T15:18:39.118Z,18.87
2022-10-25T15:20:41.803Z,18.85
2022-10-25T15:22:46.795Z,18.86
2022-10-25T15:24:49.939Z,18.86
2022-10-25T15:26:59.611Z,18.87
2022-10-25T15:29:03.931Z,18.87
2022-10-25T15:31:07.286Z,18.87
2022-10-25T15:33:12.929Z,18.87
2022-10-25T15:35:24.019Z,18.86
2022-10-25T15:37:28.830Z,18.85
2022-10-25T15:39:32.834Z,18.85
2022-10-25T15:41:36.531Z,18.84
2022-10-25T15:43:39.376Z,18.84
2022-10-25T15:45:43.959Z,18.84
2022-10-25T15:47:47.477Z,18.81
2022-10-25T15:49:53.157Z,18.78
2022-10-25T15:51:56.022Z,18.78
2022-10-25T15:53:58.754Z,18.79
2022-10-25T15:56:01.635Z,18.80
2022-10-25T15:58:08.295Z,18.80
2022-10-25T16:00:15.398Z,18.81
2022-10-25T16:02:23.017Z,18.78
2022-10-25T16:04:25.783Z,18.81
2022-10-25T16:06:28.614Z,18.79
2022-10-25T16:08:31.489Z,18.78
2022-10-25T16:10:34.370Z,18.77
2022-10-25T16:12:38.459Z,18.78
2022-10-25T16:14:41.599Z,18.78
2022-10-25T16:16:44.554Z,18.78
2022-10-25T16:18:48.765Z,18.79
2022-10-25T16:20:52.015Z,18.78
2022-10-25T16:22:55.838Z,18.77
2022-10-25T16:24:58.533Z,18.76
2022-10-25T16:27:01.256Z,18.76
2022-10-25T16:29:04.209Z,18.77
2022-10-25T16:31:06.980Z,18.76
2022-10-25T16:33:09.997Z,18.75
2022-10-25T16:35:15.800Z,18.73
2022-10-25T16:37:18.951Z,18.70
2022-10-25T16:39:21.674Z,18.74
2022-10-25T16:41:26.475Z,18.73
2022-10-25T16:43:29.184Z,18.72
2022-10-25T16:45:34.235Z,18.72
2022-10-25T16:47:37.529Z,18.71
2022-10-25T16:49:40.345Z,18.71
2022-10-25T16:51:44.798Z,18.71
2022-10-25T16:53:49.069Z,18.72
2022-10-25T16:55:51.864Z,18.71
2022-10-25T16:57:54.671Z,18.70
2022-10-25T16:59:57.453Z,18.69
2022-10-25T17:02:00.296Z,18.69
2022-10-25T17:04:04.055Z,18.70
2022-10-25T17:06:22.162Z,18.70
2022-10-25T17:08:30.897Z,18.70
2022-10-25T17:10:33.876Z,18.69
2022-10-25T17:12:43.506Z,18.69
2022-10-25T17:14:46.215Z,18.68
2022-10-25T17:16:48.946Z,18.68
2022-10-25T17:18:51.742Z,18.68
2022-10-25T17:20:54.695Z,18.67
2022-10-25T17:22:57.602Z,18.67
2022-10-25T17:25:01.863Z,18.67
2022-10-25T17:29:12.765Z,18.67
2022-10-25T17:31:15.852Z,18.67
2022-10-25T17:33:18.580Z,18.66
2022-10-25T17:35:28.477Z,18.67
2022-10-25T17:37:32.575Z,18.68
2022-10-25T17:39:35.423Z,18.67
2022-10-25T17:41:39.807Z,18.67
2022-10-25T17:43:45.409Z,18.66
2022-10-25T17:45:48.540Z,18.66
2022-10-25T17:47:51.367Z,18.66
2022-10-25T17:49:54.399Z,18.66
2022-10-25T17:51:58.002Z,18.63
2022-10-25T17:54:01.738Z,18.62
2022-10-25T17:56:12.152Z,18.63
2022-10-25T17:58:16.176Z,18.63
2022-10-25T18:00:19.083Z,18.62
2022-10-25T18:02:22.143Z,18.61
2022-10-25T18:04:25.541Z,18.61
2022-10-25T18:06:28.512Z,18.61
2022-10-25T18:08:31.288Z,18.60
2022-10-25T18:10:34.895Z,18.60
2022-10-25T18:12:37.930Z,18.60
2022-10-25T18:14:42.074Z,18.60
2022-10-25T18:16:44.622Z,18.60
2022-10-25T18:18:47.328Z,18.59
2022-10-25T18:20:51.516Z,18.59
2022-10-25T18:22:55.451Z,18.58
2022-10-25T18:24:58.297Z,18.58
2022-10-25T18:27:01.178Z,18.57
2022-10-25T18:29:04.724Z,18.57
2022-10-25T18:31:10.833Z,18.57
2022-10-25T18:33:14.968Z,18.57
2022-10-25T18:35:18.149Z,18.58
2022-10-25T18:37:21.440Z,18.58
2022-10-25T18:39:26.181Z,18.59
2022-10-25T18:41:32.262Z,18.57
2022-10-25T18:43:35.587Z,18.57
2022-10-25T18:45:38.472Z,18.58
2022-10-25T18:47:43.365Z,18.58
2022-10-25T18:49:46.200Z,18.58
2022-10-25T18:51:48.958Z,18.57
2022-10-25T18:53:54.568Z,18.58
2022-10-25T18:55:57.441Z,18.56
2022-10-25T18:58:01.341Z,18.56
2022-10-25T19:00:05.237Z,18.55
2022-10-25T19:02:08.134Z,18.55
2022-10-25T19:04:12.525Z,18.56
2022-10-25T19:06:15.436Z,18.56
2022-10-25T19:08:18.178Z,18.57
2022-10-25T19:10:21.076Z,18.57
2022-10-25T19:12:23.867Z,18.58
2022-10-25T19:14:26.834Z,18.58
2022-10-25T19:16:29.884Z,18.59
2022-10-25T19:18:33.606Z,18.59
2022-10-25T19:20:40.878Z,18.59
2022-10-25T19:22:45.827Z,18.59
2022-10-25T19:24:48.766Z,18.60
2022-10-25T19:26:51.870Z,18.60
2022-10-25T19:28:58.994Z,18.60
2022-10-25T19:31:06.354Z,18.60
2022-10-25T19:33:09.635Z,18.61
2022-10-25T19:35:12.411Z,18.60
2022-10-25T19:37:18.745Z,18.61
2022-10-25T19:39:21.757Z,18.62
2022-10-25T19:41:25.780Z,18.62
2022-10-25T19:43:28.920Z,18.62
2022-10-25T19:45:31.687Z,18.61
2022-10-25T19:47:35.252Z,18.60
2022-10-25T19:49:38.409Z,18.62
2022-10-25T19:51:42.349Z,18.63
2022-10-25T19:53:46.882Z,18.61
2022-10-25T19:55:59.588Z,18.61
2022-10-25T19:58:04.128Z,18.60
2022-10-25T20:00:11.301Z,18.60
2022-10-25T20:02:16.546Z,18.62
2022-10-25T20:04:19.584Z,18.62
2022-10-25T20:06:25.185Z,18.63
2022-10-25T20:08:28.528Z,18.62
2022-10-25T20:10:32.586Z,18.62
2022-10-25T20:12:35.264Z,18.63
2022-10-25T20:14:38.313Z,18.62
2022-10-25T20:16:41.153Z,18.62
2022-10-25T20:18:44.365Z,18.62
2022-10-25T20:20:53.016Z,18.60
2022-10-25T20:22:56.695Z,18.63
2022-10-25T20:24:59.376Z,18.63
2022-10-25T20:27:03.539Z,18.60
2022-10-25T20:29:09.373Z,18.62
2022-10-25T20:31:13.067Z,18.61
2022-10-25T20:33:16.492Z,18.62
2022-10-25T20:35:21.255Z,18.61
2022-10-25T20:37:26.279Z,18.61
2022-10-25T20:39:28.982Z,18.60
2022-10-25T20:41:32.521Z,18.61
2022-10-25T20:43:37.318Z,18.61
2022-10-25T20:45:41.351Z,18.61
2022-10-25T20:47:45.042Z,18.62
2022-10-25T20:49:47.895Z,18.62
2022-10-25T20:51:50.724Z,18.62
2022-10-25T20:53:53.832Z,18.62
2022-10-25T20:55:56.833Z,18.64
2022-10-25T20:57:59.867Z,18.65
2022-10-25T21:00:05.544Z,18.63
2022-10-25T21:02:10.077Z,18.64
2022-10-25T21:04:16.141Z,18.63
2022-10-25T21:06:21.530Z,18.63
2022-10-25T21:08:24.843Z,18.62
2022-10-25T21:10:28.977Z,18.61
2022-10-25T21:12:32.317Z,18.62
2022-10-25T21:14:36.528Z,18.62
2022-10-25T21:16:40.657Z,18.63
2022-10-25T21:18:44.151Z,18.62
2022-10-25T21:20:47.938Z,18.63
2022-10-25T21:22:50.615Z,18.63
2022-10-25T21:24:53.451Z,18.63
2022-10-25T21:26:56.496Z,18.63
2022-10-25T21:28:59.267Z,18.63
2022-10-25T21:31:02.888Z,18.64
2022-10-25T21:33:07.106Z,18.62
2022-10-25T21:35:10.152Z,18.63
2022-10-25T21:37:13.106Z,18.63
2022-10-25T21:39:19.773Z,18.64
2022-10-25T21:41:26.780Z,18.63
2022-10-25T21:43:29.939Z,18.63
2022-10-25T21:45:32.760Z,18.62
2022-10-25T21:47:36.581Z,18.63
2022-10-25T21:49:40.696Z,18.62
2022-10-25T21:51:43.447Z,18.62
2022-10-25T21:53:46.358Z,18.58
2022-10-25T21:55:49.225Z,18.60
2022-10-25T21:57:54.463Z,18.60
2022-10-25T21:59:57.582Z,18.61
2022-10-25T22:02:01.058Z,18.61
2022-10-25T22:04:04.117Z,18.61
2022-10-25T22:06:09.745Z,18.60
2022-10-25T22:08:12.754Z,18.60
2022-10-25T22:10:15.683Z,18.59
2022-10-25T22:12:19.690Z,18.58
2022-10-25T22:14:25.176Z,18.57
2022-10-25T22:16:28.592Z,18.57
2022-10-25T22:18:31.688Z,18.58
2022-10-25T22:20:34.455Z,18.57
2022-10-25T22:22:38.729Z,18.57
2022-10-25T22:24:41.549Z,18.56
2022-10-25T22:26:45.692Z,18.55
2022-10-25T22:28:52.958Z,18.56
2022-10-25T22:30:59.616Z,18.55
2022-10-25T22:33:02.468Z,18.57
2022-10-25T22:35:05.840Z,18.56
2022-10-25T22:37:10.390Z,18.57
2022-10-25T22:39:16.549Z,18.56
2022-10-25T22:41:20.660Z,18.56
2022-10-25T22:43:25.603Z,18.56
2022-10-25T22:45:28.512Z,18.56
2022-10-25T22:47:31.395Z,18.57
2022-10-25T22:49:34.619Z,18.56
2022-10-25T22:51:38.496Z,18.56
2022-10-25T22:53:42.474Z,18.50
2022-10-25T22:55:54.627Z,18.53
2022-10-25T22:57:57.481Z,18.52
2022-10-25T23:00:00.176Z,18.53
2022-10-25T23:02:04.340Z,18.53
2022-10-25T23:04:08.893Z,18.54
2022-10-25T23:06:14.216Z,18.51
2022-10-25T23:08:17.018Z,18.51
2022-10-25T23:10:19.906Z,18.46
2022-10-25T23:12:23.873Z,18.45
2022-10-25T23:14:26.591Z,18.45
2022-10-25T23:16:30.590Z,18.48
2022-10-25T23:18:33.741Z,18.49
2022-10-25T23:20:36.613Z,18.49
2022-10-25T23:22:39.646Z,18.49
2022-10-25T23:24:42.450Z,18.50
2022-10-25T23:26:45.248Z,18.51
2022-10-25T23:28:49.667Z,18.51
2022-10-25T23:30:52.363Z,18.50
2022-10-25T23:32:55.151Z,18.49
2022-10-25T23:34:57.912Z,18.47
2022-10-25T23:37:00.663Z,18.40
2022-10-25T23:39:03.845Z,18.41
2022-10-25T23:41:07.680Z,18.41
2022-10-25T23:43:10.403Z,18.40
2022-10-25T23:45:14.609Z,18.32
2022-10-25T23:47:17.470Z,18.12
2022-10-25T23:49:20.229Z,17.90
2022-10-25T23:51:23.264Z,17.82
2022-10-25T23:53:26.586Z,17.79
2022-10-25T23:55:29.319Z,17.83
2022-10-25T23:57:32.286Z,17.91
2022-10-25T23:59:35.121Z,17.90
